Time;durP1;ratioP1;P1;durP2;ratioP2;P2;SDS_P1;SDS_P2;PMS_P1;PMS_P2;Temp;Humidity;BMP_temperature;BMP_pressure;BME280_temperature;BME280_humidity;BME280_pressure;Samples;Min_cycle;Max_cycle;Signal;HPM_P1;HPM_P2
2021/10/18 00:00:03;;;;;;;23.90;16.30;;;;;;;;;;5118471;28;20238;-65
2021/10/18 00:02:31;;;;;;;22.13;15.00;;;;;;;;;;5118292;28;20211;-64
2021/10/18 00:04:59;;;;;;;24.97;15.90;;;;;;;;;;5119248;27;20224;-65
2021/10/18 00:07:27;;;;;;;28.40;16.70;;;;;;;;;;5118210;28;20203;-66
2021/10/18 00:09:55;;;;;;;21.53;15.23;;;;;;;;;;5115061;28;20197;-65
2021/10/18 00:12:23;;;;;;;22.90;15.93;;;;;;;;;;5119658;28;20200;-65
2021/10/18 00:14:51;;;;;;;20.53;15.07;;;;;;;;;;5124503;27;20216;-65
2021/10/18 00:17:20;;;;;;;22.30;14.77;;;;;;;;;;5122944;28;20208;-64
2021/10/18 00:19:48;;;;;;;22.53;14.33;;;;;;;;;;5125258;27;20215;-65
2021/10/18 00:22:16;;;;;;;22.67;14.13;;;;;;;;;;5129067;28;20200;-65
2021/10/18 00:24:44;;;;;;;20.43;13.90;;;;;;;;;;5123033;27;20227;-64
2021/10/18 00:27:12;;;;;;;20.47;15.10;;;;;;;;;;5120353;28;20207;-64
2021/10/18 00:29:40;;;;;;;20.27;13.77;;;;;;;;;;5126861;28;20275;-65
2021/10/18 00:32:08;;;;;;;21.57;15.37;;;;;;;;;;5125874;28;20258;-64
2021/10/18 00:34:38;;;;;;;24.73;14.43;;;;;;;;;;5125780;28;20707;-65
2021/10/18 00:37:06;;;;;;;21.93;14.03;;;;;;;;;;5126233;28;20261;-65
2021/10/18 00:39:34;;;;;;;18.47;13.90;;;;;;;;;;5126563;27;20243;-64
2021/10/18 00:42:02;;;;;;;21.07;15.07;;;;;;;;;;5125914;28;20211;-64
2021/10/18 00:44:31;;;;;;;21.07;14.33;;;;;;;;;;5128466;28;20217;-65
2021/10/18 00:46:59;;;;;;;21.33;15.07;;;;;;;;;;5117518;28;20212;-64
2021/10/18 00:49:27;;;;;;;21.83;14.60;;;;;;;;;;5117767;28;20201;-65
2021/10/18 00:51:57;;;;;;;22.53;14.97;;;;;;;;;;5123394;28;20193;-65
2021/10/18 00:54:25;;;;;;;24.30;15.23;;;;;;;;;;5117612;28;20303;-65
2021/10/18 00:56:53;;;;;;;21.33;14.67;;;;;;;;;;5120130;28;20292;-65
2021/10/18 00:59:21;;;;;;;21.03;14.73;;;;;;;;;;5120290;28;20208;-65
2021/10/18 01:01:50;;;;;;;22.20;15.17;;;;;;;;;;5120270;28;20223;-66
2021/10/18 01:04:18;;;;;;;21.73;14.50;;;;;;;;;;5117566;28;20228;-65
2021/10/18 01:06:46;;;;;;;20.67;14.67;;;;;;;;;;5120166;28;20197;-65
2021/10/18 01:09:16;;;;;;;23.87;14.03;;;;;;;;;;5120369;27;20228;-66
2021/10/18 01:11:44;;;;;;;21.70;13.97;;;;;;;;;;5120251;28;20231;-66
2021/10/18 01:14:12;;;;;;;23.37;14.47;;;;;;;;;;5119855;28;20324;-65
2021/10/18 01:16:40;;;;;;;22.23;14.83;;;;;;;;;;5120175;28;20193;-66
2021/10/18 01:19:11;;;;;;;22.03;13.80;;;;;;;;;;5119076;28;20201;-65
2021/10/18 01:21:41;;;;;;;18.77;12.60;;;;;;;;;;5120960;28;20231;-65
2021/10/18 01:24:10;;;;;;;20.77;13.37;;;;;;;;;;5120817;27;20229;-65
2021/10/18 01:26:38;;;;;;;19.30;12.83;;;;;;;;;;5120926;28;20208;-65
2021/10/18 01:29:06;;;;;;;20.93;14.53;;;;;;;;;;5121313;28;20209;-65
2021/10/18 01:31:34;;;;;;;19.73;13.23;;;;;;;;;;5121476;28;20215;-65
2021/10/18 01:34:02;;;;;;;16.77;12.17;;;;;;;;;;5120992;28;20224;-65
2021/10/18 01:36:30;;;;;;;21.43;13.23;;;;;;;;;;5120855;28;20208;-65
2021/10/18 01:38:59;;;;;;;16.97;13.07;;;;;;;;;;5120780;28;20233;-65
2021/10/18 01:41:27;;;;;;;15.03;12.17;;;;;;;;;;5120607;28;20231;-65
2021/10/18 01:43:55;;;;;;;19.73;12.17;;;;;;;;;;5120958;28;20225;-65
2021/10/18 01:46:23;;;;;;;17.60;13.27;;;;;;;;;;5120758;28;20597;-65
2021/10/18 01:48:51;;;;;;;16.50;12.50;;;;;;;;;;5120723;28;20205;-65
2021/10/18 01:51:19;;;;;;;19.53;12.63;;;;;;;;;;5120693;28;20209;-65
2021/10/18 01:53:47;;;;;;;18.20;12.10;;;;;;;;;;5120419;28;20569;-65
2021/10/18 01:56:17;;;;;;;20.47;13.73;;;;;;;;;;5120286;28;20234;-65
2021/10/18 01:58:45;;;;;;;17.70;11.83;;;;;;;;;;5120835;28;20292;-65
2021/10/18 02:01:13;;;;;;;17.50;12.60;;;;;;;;;;5120287;28;20221;-65
2021/10/18 02:03:41;;;;;;;16.63;12.27;;;;;;;;;;5120102;28;20208;-65
2021/10/18 02:06:10;;;;;;;16.97;12.20;;;;;;;;;;5119423;27;20265;-65
2021/10/18 02:08:38;;;;;;;19.00;13.40;;;;;;;;;;5120647;28;20205;-65
2021/10/18 02:11:06;;;;;;;18.37;12.73;;;;;;;;;;5120111;28;20212;-65
2021/10/18 02:13:35;;;;;;;19.10;13.37;;;;;;;;;;5120331;28;20205;-65
2021/10/18 02:16:03;;;;;;;19.60;12.73;;;;;;;;;;5119984;28;20575;-65
2021/10/18 02:18:31;;;;;;;16.37;12.37;;;;;;;;;;5120219;28;20613;-65
2021/10/18 02:21:01;;;;;;;17.73;11.83;;;;;;;;;;5120395;28;20232;-65
2021/10/18 02:23:29;;;;;;;18.30;12.83;;;;;;;;;;5120341;28;20208;-65
2021/10/18 02:25:57;;;;;;;21.10;12.47;;;;;;;;;;5119638;28;20673;-65
2021/10/18 02:28:25;;;;;;;20.43;12.47;;;;;;;;;;5120140;28;20213;-65
2021/10/18 02:30:54;;;;;;;15.97;11.30;;;;;;;;;;5119707;28;20205;-65
2021/10/18 02:33:23;;;;;;;20.30;11.73;;;;;;;;;;5119823;27;20201;-65
2021/10/18 02:35:51;;;;;;;18.50;11.63;;;;;;;;;;5119729;28;20685;-65
2021/10/18 02:38:19;;;;;;;15.67;11.97;;;;;;;;;;5119499;28;20291;-66
2021/10/18 02:40:47;;;;;;;17.60;11.77;;;;;;;;;;5119421;28;20308;-65
2021/10/18 02:43:15;;;;;;;15.77;10.97;;;;;;;;;;5119793;28;20661;-65
2021/10/18 02:45:43;;;;;;;18.23;11.27;;;;;;;;;;5119526;28;20225;-65
2021/10/18 02:48:13;;;;;;;14.80;10.93;;;;;;;;;;5119744;28;20209;-65
2021/10/18 02:50:41;;;;;;;16.07;10.97;;;;;;;;;;5119715;28;20239;-65
2021/10/18 02:53:09;;;;;;;16.53;11.17;;;;;;;;;;5119627;28;20284;-65
2021/10/18 02:55:37;;;;;;;17.33;10.43;;;;;;;;;;5120193;28;20289;-65
2021/10/18 02:58:05;;;;;;;17.53;10.73;;;;;;;;;;5120514;28;20291;-65
2021/10/18 03:00:33;;;;;;;14.00;10.67;;;;;;;;;;5119257;27;20209;-65
2021/10/18 03:03:01;;;;;;;15.50;11.07;;;;;;;;;;5119369;28;20228;-65
2021/10/18 03:05:33;;;;;;;15.63;11.27;;;;;;;;;;5119544;28;20311;-65
2021/10/18 03:08:01;;;;;;;17.80;11.53;;;;;;;;;;5119237;28;20215;-65
2021/10/18 03:10:29;;;;;;;13.23;10.47;;;;;;;;;;5119034;28;20552;-65
2021/10/18 03:12:57;;;;;;;14.40;11.03;;;;;;;;;;5118817;28;20205;-65
2021/10/18 03:15:25;;;;;;;15.57;10.93;;;;;;;;;;5119207;28;20260;-65
2021/10/18 03:17:53;;;;;;;13.60;11.27;;;;;;;;;;5118832;28;20204;-65
2021/10/18 03:20:21;;;;;;;16.17;10.87;;;;;;;;;;5119241;27;20209;-65
2021/10/18 03:22:50;;;;;;;16.30;10.63;;;;;;;;;;5118818;28;20229;-65
2021/10/18 03:25:18;;;;;;;16.90;11.63;;;;;;;;;;5118898;28;20227;-65
2021/10/18 03:27:46;;;;;;;16.70;11.03;;;;;;;;;;5118855;28;20211;-65
2021/10/18 03:30:15;;;;;;;15.33;10.33;;;;;;;;;;5118838;28;20288;-65
2021/10/18 03:32:43;;;;;;;18.03;12.00;;;;;;;;;;5118817;28;20197;-65
2021/10/18 03:35:10;;;;;;;16.53;11.87;;;;;;;;;;5118550;28;20243;-65
2021/10/18 03:37:38;;;;;;;15.20;11.30;;;;;;;;;;5119283;28;20209;-65
2021/10/18 03:40:11;;;;;;;17.60;11.53;;;;;;;;;;5119219;28;20243;-65
2021/10/18 03:42:39;;;;;;;21.27;11.40;;;;;;;;;;5119188;28;20231;-65
2021/10/18 03:45:08;;;;;;;16.03;11.57;;;;;;;;;;5118926;28;20229;-65
2021/10/18 03:47:36;;;;;;;19.10;13.33;;;;;;;;;;5118340;28;20211;-64
2021/10/18 03:50:05;;;;;;;17.13;11.77;;;;;;;;;;5118570;28;20201;-65
2021/10/18 03:52:33;;;;;;;19.77;12.33;;;;;;;;;;5118624;28;21344;-65
2021/10/18 03:55:01;;;;;;;17.17;11.77;;;;;;;;;;5118404;28;20225;-65
2021/10/18 03:57:31;;;;;;;19.23;11.70;;;;;;;;;;5118363;27;20205;-65
2021/10/18 03:59:59;;;;;;;15.27;11.03;;;;;;;;;;5111732;28;20209;-65
2021/10/18 04:02:27;;;;;;;18.13;11.93;;;;;;;;;;5110880;27;20217;-65
2021/10/18 04:04:55;;;;;;;17.40;12.27;;;;;;;;;;5117807;28;20760;-65
2021/10/18 04:07:23;;;;;;;15.77;10.77;;;;;;;;;;5118237;28;20739;-65
2021/10/18 04:09:51;;;;;;;18.27;12.83;;;;;;;;;;5117893;28;20200;-65
2021/10/18 04:12:19;;;;;;;19.17;13.17;;;;;;;;;;5118041;28;20671;-65
2021/10/18 04:14:48;;;;;;;20.33;13.00;;;;;;;;;;5117430;28;20288;-64
2021/10/18 04:17:16;;;;;;;19.33;14.03;;;;;;;;;;5118028;28;20205;-66
2021/10/18 04:19:44;;;;;;;19.93;13.03;;;;;;;;;;5118005;28;20211;-66
2021/10/18 04:22:12;;;;;;;16.90;12.30;;;;;;;;;;5117859;28;20220;-65
2021/10/18 04:24:40;;;;;;;18.90;12.97;;;;;;;;;;5118244;28;20223;-66
2021/10/18 04:27:08;;;;;;;16.70;12.17;;;;;;;;;;5118332;28;20236;-67
2021/10/18 04:29:36;;;;;;;19.93;13.10;;;;;;;;;;5119485;28;20671;-69
2021/10/18 04:32:06;;;;;;;23.50;13.53;;;;;;;;;;5122078;28;20204;-69
2021/10/18 04:34:34;;;;;;;18.90;12.53;;;;;;;;;;5121969;27;20225;-68
2021/10/18 04:37:02;;;;;;;21.00;13.03;;;;;;;;;;5122213;28;20212;-68
2021/10/18 04:39:30;;;;;;;19.03;13.60;;;;;;;;;;5122004;28;20242;-68
2021/10/18 04:41:58;;;;;;;20.83;13.00;;;;;;;;;;5121498;28;20311;-68
2021/10/18 04:44:26;;;;;;;19.63;13.83;;;;;;;;;;5121880;28;20213;-68
2021/10/18 04:46:54;;;;;;;19.93;13.00;;;;;;;;;;5121471;28;20728;-68
2021/10/18 04:49:23;;;;;;;20.87;12.83;;;;;;;;;;5121609;27;20577;-69
2021/10/18 04:51:51;;;;;;;17.60;12.77;;;;;;;;;;5121337;28;20196;-65
2021/10/18 04:54:19;;;;;;;19.40;13.20;;;;;;;;;;5121425;28;20225;-66
2021/10/18 04:56:47;;;;;;;17.13;12.30;;;;;;;;;;5117497;28;20199;-67
2021/10/18 04:59:15;;;;;;;20.73;13.30;;;;;;;;;;5120434;28;20659;-65
2021/10/18 05:01:43;;;;;;;18.40;12.73;;;;;;;;;;5120977;28;20686;-64
2021/10/18 05:04:11;;;;;;;18.97;13.40;;;;;;;;;;5118960;28;20304;-64
2021/10/18 05:06:41;;;;;;;22.47;12.97;;;;;;;;;;5120816;28;20205;-64
2021/10/18 05:09:09;;;;;;;17.90;12.30;;;;;;;;;;5121777;28;20692;-65
2021/10/18 05:11:37;;;;;;;20.43;13.00;;;;;;;;;;5121466;28;20211;-65
2021/10/18 05:14:05;;;;;;;16.47;12.73;;;;;;;;;;5120939;28;20220;-64
2021/10/18 05:16:34;;;;;;;21.37;12.57;;;;;;;;;;5120527;28;20648;-65
2021/10/18 05:19:02;;;;;;;16.97;12.00;;;;;;;;;;5120632;28;20615;-64
2021/10/18 05:21:30;;;;;;;20.03;12.07;;;;;;;;;;5120858;28;20228;-64
2021/10/18 05:24:00;;;;;;;17.17;12.73;;;;;;;;;;5107730;28;20242;-64
2021/10/18 05:26:28;;;;;;;18.00;12.33;;;;;;;;;;5120642;28;20230;-65
2021/10/18 05:28:56;;;;;;;15.53;11.50;;;;;;;;;;5120780;28;20224;-65
2021/10/18 05:31:24;;;;;;;16.53;11.50;;;;;;;;;;5120994;28;20295;-65
2021/10/18 05:33:52;;;;;;;18.50;12.17;;;;;;;;;;5120690;28;20217;-65
2021/10/18 05:36:20;;;;;;;17.57;12.07;;;;;;;;;;5120935;28;20209;-65
2021/10/18 05:38:48;;;;;;;17.37;11.87;;;;;;;;;;5120696;28;20236;-65
2021/10/18 05:41:17;;;;;;;19.23;13.07;;;;;;;;;;5120007;28;20200;-65
2021/10/18 05:43:45;;;;;;;19.00;12.73;;;;;;;;;;5120832;28;20791;-65
2021/10/18 05:46:13;;;;;;;19.60;12.87;;;;;;;;;;5120646;28;20246;-65
2021/10/18 05:48:41;;;;;;;23.87;12.33;;;;;;;;;;5119942;28;20251;-66
2021/10/18 05:51:10;;;;;;;16.67;12.03;;;;;;;;;;5117227;28;20209;-66
2021/10/18 05:53:38;;;;;;;20.37;12.17;;;;;;;;;;5117157;28;20678;-65
2021/10/18 05:56:06;;;;;;;20.13;14.00;;;;;;;;;;5127405;27;20250;-66
2021/10/18 05:58:36;;;;;;;16.90;11.63;;;;;;;;;;5127897;27;20193;-66
2021/10/18 06:01:04;;;;;;;17.63;12.77;;;;;;;;;;5128294;27;20201;-66
2021/10/18 06:03:32;;;;;;;17.07;12.37;;;;;;;;;;5130907;27;20217;-66
2021/10/18 06:06:02;;;;;;;18.33;12.27;;;;;;;;;;5123399;27;20262;-66
2021/10/18 06:08:45;;;;;;;15.10;10.77;;;;;;;;;;5128960;27;20693;-65
2021/10/18 06:11:14;;;;;;;15.70;10.90;;;;;;;;;;5128717;27;20288;-66
2021/10/18 06:13:44;;;;;;;22.43;12.57;;;;;;;;;;5125827;27;20283;-66
2021/10/18 06:16:12;;;;;;;18.13;12.00;;;;;;;;;;5127537;27;20196;-66
2021/10/18 06:18:40;;;;;;;15.60;12.03;;;;;;;;;;5125392;27;20197;-65
2021/10/18 06:21:08;;;;;;;20.57;11.67;;;;;;;;;;5130718;27;20288;-65
2021/10/18 06:23:36;;;;;;;18.13;11.83;;;;;;;;;;5134445;27;20268;-65
2021/10/18 06:26:04;;;;;;;15.37;11.03;;;;;;;;;;5120079;27;20682;-65
2021/10/18 06:28:32;;;;;;;16.20;10.90;;;;;;;;;;5119523;28;20678;-65
2021/10/18 06:31:01;;;;;;;14.67;11.27;;;;;;;;;;5119412;28;20204;-65
2021/10/18 06:33:29;;;;;;;15.17;11.07;;;;;;;;;;5119365;28;20211;-65
2021/10/18 06:35:57;;;;;;;16.20;11.83;;;;;;;;;;5115627;28;20197;-65
2021/10/18 06:38:26;;;;;;;16.90;11.67;;;;;;;;;;5119447;28;20196;-65
2021/10/18 06:40:56;;;;;;;17.40;12.47;;;;;;;;;;5119519;28;20633;-65
2021/10/18 06:43:24;;;;;;;20.80;12.80;;;;;;;;;;5117680;27;20590;-65
2021/10/18 06:45:52;;;;;;;19.70;12.70;;;;;;;;;;5121937;27;20659;-64
2021/10/18 06:48:22;;;;;;;16.73;11.87;;;;;;;;;;5119527;28;20212;-65
2021/10/18 06:50:50;;;;;;;29.23;13.60;;;;;;;;;;5119385;28;20223;-66
2021/10/18 06:53:20;;;;;;;16.60;11.13;;;;;;;;;;5118797;28;20208;-64
2021/10/18 06:55:48;;;;;;;22.10;11.43;;;;;;;;;;5119088;28;20260;-64
2021/10/18 06:58:16;;;;;;;22.67;12.93;;;;;;;;;;5119451;28;20196;-65
2021/10/18 07:00:44;;;;;;;15.77;10.90;;;;;;;;;;5118851;28;20200;-64
2021/10/18 07:03:12;;;;;;;18.17;12.10;;;;;;;;;;5123820;27;20217;-65
2021/10/18 07:05:41;;;;;;;16.40;10.43;;;;;;;;;;5126631;27;20216;-65
2021/10/18 07:08:09;;;;;;;24.13;11.07;;;;;;;;;;5128796;27;20237;-65
2021/10/18 07:10:37;;;;;;;19.17;12.07;;;;;;;;;;5127560;27;20192;-65
2021/10/18 07:13:09;;;;;;;16.90;11.00;;;;;;;;;;5118886;28;20546;-65
2021/10/18 07:15:37;;;;;;;19.57;11.17;;;;;;;;;;5118572;28;20315;-66
2021/10/18 07:18:05;;;;;;;20.17;11.53;;;;;;;;;;5118799;28;20545;-66
2021/10/18 07:20:33;;;;;;;19.47;11.80;;;;;;;;;;5119052;28;20204;-66
2021/10/18 07:23:07;;;;;;;17.90;11.57;;;;;;;;;;5118995;28;20209;-66
2021/10/18 07:25:35;;;;;;;18.13;11.57;;;;;;;;;;5118461;28;20288;-66
2021/10/18 07:28:04;;;;;;;27.70;13.33;;;;;;;;;;5118681;28;20521;-66
2021/10/18 07:30:33;;;;;;;19.10;12.60;;;;;;;;;;5118637;28;20214;-66
2021/10/18 07:33:01;;;;;;;21.23;11.97;;;;;;;;;;5121235;27;20206;-66
2021/10/18 07:35:32;;;;;;;22.40;13.10;;;;;;;;;;5124468;27;20215;-66
2021/10/18 07:38:00;;;;;;;25.63;13.60;;;;;;;;;;5127907;27;20211;-66
2021/10/18 07:40:29;;;;;;;18.43;13.07;;;;;;;;;;5126754;27;20258;-66
2021/10/18 07:43:00;;;;;;;18.77;12.47;;;;;;;;;;5121393;27;20210;-66
2021/10/18 07:45:29;;;;;;;22.23;12.83;;;;;;;;;;5127572;27;20220;-66
2021/10/18 07:47:57;;;;;;;18.90;12.63;;;;;;;;;;5125126;27;20612;-65
2021/10/18 07:50:25;;;;;;;15.93;12.07;;;;;;;;;;5125820;27;20201;-66
2021/10/18 07:52:53;;;;;;;19.97;12.50;;;;;;;;;;5126857;27;20205;-66
2021/10/18 07:55:21;;;;;;;24.30;13.13;;;;;;;;;;5126041;27;20783;-66
2021/10/18 07:57:51;;;;;;;20.30;12.20;;;;;;;;;;5123840;27;20726;-67
2021/10/18 08:00:21;;;;;;;21.73;12.10;;;;;;;;;;5125190;27;20298;-66
2021/10/18 08:02:50;;;;;;;19.63;13.73;;;;;;;;;;5123539;27;20251;-66
2021/10/18 08:05:18;;;;;;;21.23;13.30;;;;;;;;;;5127401;27;20658;-66
2021/10/18 08:07:48;;;;;;;24.37;13.43;;;;;;;;;;5119760;27;20201;-66
2021/10/18 08:10:23;;;;;;;28.33;14.50;;;;;;;;;;5118324;28;20215;-66
2021/10/18 08:12:53;;;;;;;19.90;13.20;;;;;;;;;;5117739;28;20200;-66
2021/10/18 08:15:21;;;;;;;20.70;13.30;;;;;;;;;;5117682;28;20224;-66
2021/10/18 08:17:49;;;;;;;21.27;13.20;;;;;;;;;;5117836;28;20204;-66
2021/10/18 08:20:18;;;;;;;20.83;12.63;;;;;;;;;;5118259;28;20572;-66
2021/10/18 08:22:46;;;;;;;19.57;12.27;;;;;;;;;;5118040;28;20207;-66
2021/10/18 08:25:14;;;;;;;21.90;12.47;;;;;;;;;;5124908;28;20230;-66
2021/10/18 08:27:43;;;;;;;18.83;13.53;;;;;;;;;;5121933;28;20691;-66
2021/10/18 08:30:12;;;;;;;17.30;12.03;;;;;;;;;;5120425;28;20196;-66
2021/10/18 08:32:40;;;;;;;20.23;12.23;;;;;;;;;;5127155;28;20330;-66
2021/10/18 08:35:10;;;;;;;27.67;13.47;;;;;;;;;;5122524;28;20276;-66
2021/10/18 08:40:26;;;;;;;16.27;11.80;;;;;;;;;;5127179;28;20225;-66
2021/10/18 08:43:00;;;;;;;19.13;11.33;;;;;;;;;;5126438;28;20196;-66
2021/10/18 08:45:30;;;;;;;15.57;10.43;;;;;;;;;;5122100;27;20694;-66
2021/10/18 08:47:58;;;;;;;18.80;10.30;;;;;;;;;;5128328;28;20256;-66
2021/10/18 08:50:26;;;;;;;14.70;10.93;;;;;;;;;;5126419;28;20197;-67
2021/10/18 08:52:54;;;;;;;16.70;10.97;;;;;;;;;;5125336;28;20200;-66
2021/10/18 08:55:22;;;;;;;12.13;10.07;;;;;;;;;;5117335;28;20227;-66
2021/10/18 08:57:50;;;;;;;19.50;10.83;;;;;;;;;;5117543;28;20208;-66
2021/10/18 09:00:33;;;;;;;16.97;10.67;;;;;;;;;;5117245;28;20205;-67
2021/10/18 09:03:17;;;;;;;19.20;10.80;;;;;;;;;;5116482;27;20208;-66
2021/10/18 09:05:46;;;;;;;20.20;9.83;;;;;;;;;;5117998;28;20242;-66
2021/10/18 09:08:32;;;;;;;17.83;10.53;;;;;;;;;;5125180;28;20724;-67
2021/10/18 09:11:04;;;;;;;16.97;9.97;;;;;;;;;;5122484;28;20203;-66
2021/10/18 09:13:33;;;;;;;16.23;11.20;;;;;;;;;;5124600;28;20215;-66
2021/10/18 09:16:01;;;;;;;13.77;10.70;;;;;;;;;;5128298;27;20690;-66
2021/10/18 09:18:30;;;;;;;16.27;11.57;;;;;;;;;;5125728;27;20232;-66
2021/10/18 09:20:59;;;;;;;17.77;11.23;;;;;;;;;;5120328;27;20251;-66
2021/10/18 09:23:29;;;;;;;18.97;11.63;;;;;;;;;;5120825;28;20257;-65
2021/10/18 09:25:59;;;;;;;14.43;11.03;;;;;;;;;;5120141;28;20308;-66
2021/10/18 09:28:28;;;;;;;19.10;11.93;;;;;;;;;;5119569;28;20197;-66
2021/10/18 09:30:57;;;;;;;21.60;11.27;;;;;;;;;;5119352;27;20215;-66
2021/10/18 09:33:27;;;;;;;21.90;12.13;;;;;;;;;;5119825;28;20197;-65
2021/10/18 09:35:57;;;;;;;18.47;11.47;;;;;;;;;;5120007;28;20280;-66
2021/10/18 09:38:25;;;;;;;21.83;12.43;;;;;;;;;;5120214;28;20280;-66
2021/10/18 09:40:55;;;;;;;16.63;12.03;;;;;;;;;;5119296;28;20231;-66
2021/10/18 09:43:30;;;;;;;19.53;12.97;;;;;;;;;;5120261;28;20199;-64
2021/10/18 09:46:01;;;;;;;20.27;11.50;;;;;;;;;;5117858;28;20263;-68
2021/10/18 10:53:18;;;;;;;13.47;10.17;;;;;;;;;;5119038;28;20232;-64
2021/10/18 10:55:48;;;;;;;12.57;8.87;;;;;;;;;;5118728;28;20255;-67
2021/10/18 10:58:34;;;;;;;14.10;9.67;;;;;;;;;;5114000;28;20513;-65
2021/10/18 11:01:04;;;;;;;13.83;10.13;;;;;;;;;;5117931;28;20204;-65
2021/10/18 11:03:39;;;;;;;13.47;10.07;;;;;;;;;;5119210;27;20261;-65
2021/10/18 11:06:08;;;;;;;14.27;9.80;;;;;;;;;;5118782;28;20236;-65
2021/10/18 11:08:38;;;;;;;12.43;8.73;;;;;;;;;;5118697;28;20583;-65
2021/10/18 11:11:17;;;;;;;11.63;7.50;;;;;;;;;;5118710;28;20204;-65
2021/10/18 11:13:50;;;;;;;9.73;7.20;;;;;;;;;;5118635;28;20214;-65
2021/10/18 11:16:22;;;;;;;7.50;6.60;;;;;;;;;;5118360;28;20737;-65
2021/10/18 11:18:51;;;;;;;9.20;6.87;;;;;;;;;;5118659;27;20287;-66
2021/10/18 11:21:20;;;;;;;9.43;6.30;;;;;;;;;;5118808;27;20207;-66
2021/10/18 11:23:59;;;;;;;9.43;7.23;;;;;;;;;;5118644;27;20315;-64
2021/10/18 11:26:28;;;;;;;9.53;7.40;;;;;;;;;;5106618;28;20229;-65
2021/10/18 11:28:57;;;;;;;8.00;6.83;;;;;;;;;;5118252;28;20579;-65
2021/10/18 11:31:28;;;;;;;7.40;6.60;;;;;;;;;;5118483;27;20197;-66
2021/10/18 11:34:03;;;;;;;9.33;6.87;;;;;;;;;;5118453;28;20233;-65
2021/10/18 11:36:32;;;;;;;8.43;6.27;;;;;;;;;;5119386;28;20210;-65
2021/10/18 11:39:13;;;;;;;8.20;6.17;;;;;;;;;;5118031;28;20250;-66
2021/10/18 11:41:57;;;;;;;7.00;5.37;;;;;;;;;;5118454;28;20269;-65
2021/10/18 11:44:38;;;;;;;9.33;6.00;;;;;;;;;;5118569;28;20307;-64
2021/10/18 11:47:20;;;;;;;7.53;5.87;;;;;;;;;;5118176;28;20224;-65
2021/10/18 11:50:02;;;;;;;6.97;5.40;;;;;;;;;;5118508;28;20625;-65
2021/10/18 11:52:30;;;;;;;5.60;4.63;;;;;;;;;;5118899;28;20205;-65
2021/10/18 11:54:58;;;;;;;5.93;4.90;;;;;;;;;;5118398;28;20239;-66
2021/10/18 11:57:27;;;;;;;5.83;5.03;;;;;;;;;;5118209;28;20644;-66
2021/10/18 11:59:55;;;;;;;5.93;4.57;;;;;;;;;;5118395;28;20200;-66
2021/10/18 12:02:25;;;;;;;6.20;4.60;;;;;;;;;;5117785;28;20660;-66
2021/10/18 12:04:57;;;;;;;5.87;4.53;;;;;;;;;;5118117;28;20700;-66
2021/10/18 12:07:43;;;;;;;10.47;5.23;;;;;;;;;;5117973;28;20235;-66
2021/10/18 12:10:11;;;;;;;6.23;4.63;;;;;;;;;;5117678;28;20576;-66
2021/10/18 12:12:39;;;;;;;6.50;5.23;;;;;;;;;;5117653;28;20218;-66
2021/10/18 12:15:08;;;;;;;7.70;4.87;;;;;;;;;;5118077;28;20252;-66
2021/10/18 12:17:37;;;;;;;8.87;5.60;;;;;;;;;;5118391;28;20201;-66
2021/10/18 12:20:05;;;;;;;9.90;5.83;;;;;;;;;;5118095;28;20208;-65
2021/10/18 12:22:57;;;;;;;9.80;5.40;;;;;;;;;;5117765;28;20254;-65
2021/10/18 12:25:25;;;;;;;7.10;5.33;;;;;;;;;;5117145;28;20644;-65
2021/10/18 12:27:54;;;;;;;8.97;5.33;;;;;;;;;;5118023;28;20288;-65
2021/10/18 12:30:40;;;;;;;10.80;5.50;;;;;;;;;;5117892;28;20203;-65
2021/10/18 12:33:14;;;;;;;7.77;5.13;;;;;;;;;;5117841;28;20215;-65
2021/10/18 12:35:42;;;;;;;8.20;6.10;;;;;;;;;;5117749;28;20243;-65
2021/10/18 12:38:11;;;;;;;6.70;5.43;;;;;;;;;;5117826;28;20204;-65
2021/10/18 12:40:39;;;;;;;7.50;6.57;;;;;;;;;;5117085;28;20241;-65
2021/10/18 12:43:07;;;;;;;8.63;5.70;;;;;;;;;;5117807;28;20205;-65
2021/10/18 12:45:36;;;;;;;7.90;5.77;;;;;;;;;;5117553;28;20707;-65
2021/10/18 12:48:04;;;;;;;10.10;5.83;;;;;;;;;;5117656;28;20201;-65
2021/10/18 12:50:37;;;;;;;7.97;5.40;;;;;;;;;;5119222;28;20209;-65
2021/10/18 12:53:10;;;;;;;10.20;5.93;;;;;;;;;;5121779;28;20671;-66
2021/10/18 12:55:39;;;;;;;8.70;4.67;;;;;;;;;;5121875;28;20287;-65
2021/10/18 12:58:16;;;;;;;10.63;5.80;;;;;;;;;;5122089;28;20284;-67
2021/10/18 13:00:44;;;;;;;8.70;5.60;;;;;;;;;;5122253;28;20648;-66
2021/10/18 13:03:18;;;;;;;9.43;5.50;;;;;;;;;;5121631;28;20212;-66
2021/10/18 13:05:48;;;;;;;7.93;5.60;;;;;;;;;;5121530;28;20252;-66
2021/10/18 13:08:17;;;;;;;11.40;5.20;;;;;;;;;;5121551;28;20668;-66
2021/10/18 13:10:49;;;;;;;11.27;5.83;;;;;;;;;;5121285;27;20230;-66
2021/10/18 13:13:18;;;;;;;8.20;5.70;;;;;;;;;;5121427;27;20288;-66
2021/10/18 13:15:47;;;;;;;10.53;5.17;;;;;;;;;;5121493;28;20273;-66
2021/10/18 13:18:16;;;;;;;8.33;5.90;;;;;;;;;;5121209;27;20228;-65
2021/10/18 13:20:45;;;;;;;8.20;5.77;;;;;;;;;;5121296;28;20211;-66
2021/10/18 13:23:16;;;;;;;13.47;5.60;;;;;;;;;;5121373;28;20219;-66
2021/10/18 13:25:44;;;;;;;10.17;5.90;;;;;;;;;;5120796;28;20223;-66
2021/10/18 13:28:13;;;;;;;11.17;6.40;;;;;;;;;;5121039;27;20220;-66
2021/10/18 13:30:42;;;;;;;9.57;6.00;;;;;;;;;;5121068;28;20205;-67
2021/10/18 13:33:10;;;;;;;10.40;6.57;;;;;;;;;;5120586;28;20227;-66
2021/10/18 13:35:38;;;;;;;10.70;6.37;;;;;;;;;;5120755;28;20707;-66
2021/10/18 13:38:09;;;;;;;8.13;6.20;;;;;;;;;;5120961;28;20211;-66
2021/10/18 13:40:39;;;;;;;9.07;5.90;;;;;;;;;;5120445;27;20237;-66
2021/10/18 13:43:09;;;;;;;8.53;5.83;;;;;;;;;;5120931;27;20232;-66
2021/10/18 13:45:38;;;;;;;7.50;6.00;;;;;;;;;;5120874;28;20252;-66
2021/10/18 13:48:06;;;;;;;7.43;5.80;;;;;;;;;;5120517;28;20588;-66
2021/10/18 13:50:35;;;;;;;8.40;6.13;;;;;;;;;;5120756;27;20611;-66
2021/10/18 13:53:02;;;;;;;10.03;6.40;;;;;;;;;;5120726;28;20288;-66
2021/10/18 13:55:30;;;;;;;11.90;7.00;;;;;;;;;;5120448;28;20237;-66
2021/10/18 13:58:00;;;;;;;11.80;5.90;;;;;;;;;;5120360;28;20691;-66
2021/10/18 14:00:28;;;;;;;10.20;5.90;;;;;;;;;;5120397;28;20287;-66
2021/10/18 14:02:57;;;;;;;10.60;6.07;;;;;;;;;;5119903;28;20213;-66
2021/10/18 14:05:25;;;;;;;9.97;6.17;;;;;;;;;;5120170;28;20232;-66
2021/10/18 14:07:53;;;;;;;10.27;6.70;;;;;;;;;;5120147;28;20320;-66
2021/10/18 14:10:21;;;;;;;12.23;6.57;;;;;;;;;;5120089;28;20280;-66
2021/10/18 14:12:49;;;;;;;12.40;6.93;;;;;;;;;;5120041;28;20629;-66
2021/10/18 14:15:18;;;;;;;8.57;6.00;;;;;;;;;;5120012;28;20563;-66
2021/10/18 14:17:46;;;;;;;13.53;6.20;;;;;;;;;;5120421;28;20211;-66
2021/10/18 14:20:16;;;;;;;9.87;7.00;;;;;;;;;;5120127;28;20228;-67
2021/10/18 14:22:44;;;;;;;12.73;6.80;;;;;;;;;;5120183;28;20712;-66
2021/10/18 14:25:12;;;;;;;11.40;6.87;;;;;;;;;;5119511;28;20251;-66
2021/10/18 14:27:40;;;;;;;9.50;6.33;;;;;;;;;;5119925;28;20235;-66
2021/10/18 14:30:10;;;;;;;16.17;9.63;;;;;;;;;;5119599;28;20235;-66
2021/10/18 14:32:39;;;;;;;9.13;7.00;;;;;;;;;;5119465;27;20280;-66
2021/10/18 14:35:08;;;;;;;12.57;7.53;;;;;;;;;;5119614;28;20221;-66
2021/10/18 14:37:36;;;;;;;9.93;6.87;;;;;;;;;;5119637;27;20260;-66
2021/10/18 14:40:05;;;;;;;11.37;7.53;;;;;;;;;;5119139;28;20237;-66
2021/10/18 14:42:33;;;;;;;11.57;7.67;;;;;;;;;;5119721;28;20288;-66
2021/10/18 14:45:01;;;;;;;14.37;7.70;;;;;;;;;;5119630;28;20228;-66
2021/10/18 14:47:29;;;;;;;10.30;7.70;;;;;;;;;;5119521;28;20307;-66
2021/10/18 14:49:58;;;;;;;9.13;6.67;;;;;;;;;;5119595;27;20204;-67
2021/10/18 14:52:27;;;;;;;11.23;7.80;;;;;;;;;;5119683;28;20232;-67
2021/10/18 14:54:54;;;;;;;14.83;7.90;;;;;;;;;;5119163;28;21053;-67
2021/10/18 14:57:24;;;;;;;13.90;8.20;;;;;;;;;;5118999;28;20201;-67
2021/10/18 14:59:52;;;;;;;12.20;7.57;;;;;;;;;;5119184;28;20209;-67
2021/10/18 15:02:21;;;;;;;10.00;7.60;;;;;;;;;;5119066;27;20616;-67
2021/10/18 15:04:51;;;;;;;8.67;7.33;;;;;;;;;;5119043;28;20633;-67
2021/10/18 15:07:20;;;;;;;11.00;7.83;;;;;;;;;;5118880;28;20569;-67
2021/10/18 15:09:48;;;;;;;13.53;6.93;;;;;;;;;;5119287;28;20576;-67
2021/10/18 15:12:16;;;;;;;12.00;7.40;;;;;;;;;;5118719;28;20283;-67
2021/10/18 15:14:45;;;;;;;13.63;8.20;;;;;;;;;;5118441;28;20235;-67
2021/10/18 15:17:13;;;;;;;12.90;9.00;;;;;;;;;;5118793;28;20219;-67
2021/10/18 15:19:41;;;;;;;11.47;8.23;;;;;;;;;;5118922;28;20627;-67
2021/10/18 15:22:10;;;;;;;11.13;7.87;;;;;;;;;;5118894;28;20284;-67
2021/10/18 15:24:40;;;;;;;11.10;7.23;;;;;;;;;;5118742;28;20221;-67
2021/10/18 15:27:08;;;;;;;13.33;7.50;;;;;;;;;;5104732;28;20205;-66
2021/10/18 15:29:36;;;;;;;10.63;7.63;;;;;;;;;;5118653;28;20211;-66
2021/10/18 15:32:04;;;;;;;14.20;7.83;;;;;;;;;;5118617;28;20236;-66
2021/10/18 15:34:39;;;;;;;12.00;7.77;;;;;;;;;;5118492;28;20701;-66
2021/10/18 15:37:07;;;;;;;14.07;7.17;;;;;;;;;;5118477;28;20208;-66
2021/10/18 15:39:35;;;;;;;15.93;8.03;;;;;;;;;;5118161;28;20315;-66
2021/10/18 15:42:06;;;;;;;11.63;7.83;;;;;;;;;;5118259;28;20217;-66